Portada
METAR-TAF:

METAR-TAF

Aeroports :

La Chaux-de-Fonds, Suïssa

latitud: 47-05-03N, longitud: 006-47-37E, altitud: 1027 m

Observació

L'informe es va fer fa 33 minuts, a les 12:20 UTC
Vent 9 kt del Oest/Sud-Oest, variant entre Sud i Oest/Nord-Oest
Temperatura -2°C
Humitat 80%
Pressió 1004 hPa
Visibilitat 10 km o més
Cel ennuvolat a una alçada de 1200 ft
Cel ennuvolat a una alçada de 1400 ft
Cel ennuvolat a una alçada de 1900 ft
neu

METAR: LSGC 261220Z AUTO 24009KT 180V290 9999 -SN BKN012 BKN014 BKN019 //////TCU M02/M05 Q1004

Hora: 13:53 (12:53 UTC)

Pronòstic

L'informe es va fer fa 1 hora i 28 minuts, a les 11:25 UTC
Pronòstic vàlid del 26 a les 12 UTC al 26 a les 21 UTC
Vent 10 kt del Oest
Visibilitat 10 km o més
Cel ennuvolat a una alçada de 1100 ft
neu
Temporalment
l' 26 a les 12 UTC al 26 a les 21 UTC
Visibilitat: 0800 m
a una alçada de 300 ft
neu

TAF: LSGC 261125Z 2612/2621 27010KT 9999 -SN BKN011 TEMPO 2612/2621 0800 +SN VV003

Observacions i pronòstics meteorològics de més de 4000 aeroports (METAR i TAF).

Les estacions disponibles són els punts grocs i vermells al mapa.

Posi el ratolí al punt desitjat per veure el nom de l'estació.

Feu clic per veure les observacions i els pronòstics meteorològics.

Per canviar el mapa: feu clic els botons verds amb una creu de color negre per apropar; al botó verd amb un guió per allunyar la imatge; o en les fletxes verdes per a mapes adjacents.


METAR-TAF: